Metars

EGJB - Guernsey Airport
Distance from station: SW 8km

Current
Clear
Clear
 Wind from NNE
Wind: NNE 8 mph , 13 km/h
Temperature: 18°C
Dew Point: 12°C
Humidity: 68%
Barometer: 1023 hPa
Summary: Clear
Visibility: greater than 7 miles , 10 km
2018/04/20 14:20 EGJB 201420Z 03007KT 350V060 CAVOK 18/12 Q1023
EGJA - Alderney Airport
Distance from station: NE 37km

Current
Clear
Clear
 Wind from NNE
Wind: NNE 9 mph , 15 km/h
Summary: Clear
Visibility: greater than 7 miles , 10 km
2018/04/20 14:20 EGJA 201420Z 02008KT CAVOK 15/// Q1023
EGJJ - Jersey Airport
Distance from station: SE 37km

Current
Clear
Clear
 Wind from NNW
Wind: NNW 6 mph , 9 km/h
Temperature: 23°C
Dew Point: 15°C
Humidity: 61%
Barometer: 1023 hPa
Summary: Clear
Visibility: greater than 7 miles , 10 km
2018/04/20 14:20 EGJJ 201420Z 34005KT 310V020 CAVOK 23/15 Q1023